createdAt,value
2018-07-08T00:00:54.225Z,6.57
2018-07-08T00:03:21.840Z,6.13
2018-07-08T00:05:49.402Z,5.53
2018-07-08T00:08:16.963Z,6.17
2018-07-08T00:10:44.563Z,5.83
2018-07-08T00:13:12.126Z,5.57
2018-07-08T00:15:39.693Z,5.37
2018-07-08T00:18:08.056Z,5.73
2018-07-08T00:20:35.624Z,5.90
2018-07-08T00:23:03.953Z,6.07
2018-07-08T00:25:31.561Z,6.10
2018-07-08T00:27:59.141Z,6.00
2018-07-08T00:30:27.461Z,6.10
2018-07-08T00:32:55.058Z,6.70
2018-07-08T00:35:22.628Z,6.23
2018-07-08T00:37:50.555Z,6.03
2018-07-08T00:40:18.157Z,6.20
2018-07-08T00:42:45.718Z,6.37
2018-07-08T00:45:13.283Z,6.70
2018-07-08T00:47:42.143Z,6.47
2018-07-08T00:50:09.697Z,7.07
2018-07-08T00:52:37.270Z,6.93
2018-07-08T00:55:04.864Z,6.77
2018-07-08T00:57:33.194Z,7.20
2018-07-08T01:00:00.755Z,7.10
2018-07-08T01:02:28.347Z,6.50
2018-07-08T01:04:55.909Z,7.30
2018-07-08T01:07:23.490Z,6.23
2018-07-08T01:09:51.510Z,5.90
2018-07-08T01:12:19.079Z,6.13
2018-07-08T01:14:46.647Z,6.30
2018-07-08T01:17:14.237Z,6.07
2018-07-08T01:19:42.566Z,6.30
2018-07-08T01:22:10.134Z,6.67
2018-07-08T01:24:37.746Z,6.80
2018-07-08T01:27:06.075Z,6.50
2018-07-08T01:29:33.633Z,6.80
2018-07-08T01:32:01.250Z,6.63
2018-07-08T01:34:29.579Z,6.77
2018-07-08T01:36:57.144Z,6.50
2018-07-08T01:39:24.737Z,6.73
2018-07-08T01:41:52.301Z,7.60
2018-07-08T01:44:19.887Z,7.17
2018-07-08T01:46:48.227Z,7.13
2018-07-08T01:49:15.803Z,6.57
2018-07-08T01:51:44.125Z,8.00
2018-07-08T01:54:11.747Z,7.57
2018-07-08T01:56:40.077Z,7.30
2018-07-08T01:59:07.646Z,7.30
2018-07-08T02:01:35.245Z,7.20
2018-07-08T02:04:03.574Z,7.53
2018-07-08T02:06:31.158Z,7.20
2018-07-08T02:08:58.806Z,8.03
2018-07-08T02:11:26.375Z,8.57
2018-07-08T02:13:53.940Z,6.97
2018-07-08T02:16:21.562Z,7.20
2018-07-08T02:18:49.125Z,8.43
2018-07-08T02:21:16.689Z,7.40
2018-07-08T02:23:44.280Z,7.07
2018-07-08T02:26:11.917Z,7.50
2018-07-08T02:28:39.462Z,7.47
2018-07-08T02:31:07.064Z,7.67
2018-07-08T02:33:34.627Z,7.67
2018-07-08T02:36:02.193Z,7.57
2018-07-08T02:38:29.820Z,8.13
2018-07-08T02:40:57.388Z,7.70
2018-07-08T02:43:24.940Z,7.23
2018-07-08T02:45:52.539Z,7.77
2018-07-08T02:48:20.103Z,7.87
2018-07-08T02:50:47.660Z,8.00
2018-07-08T02:53:15.256Z,8.77
2018-07-08T02:55:43.586Z,6.90
2018-07-08T02:58:11.151Z,7.67
2018-07-08T03:00:38.784Z,7.67
2018-07-08T03:03:06.352Z,7.50
2018-07-08T03:05:33.912Z,7.63
2018-07-08T03:08:01.513Z,7.80
2018-07-08T03:10:29.088Z,7.60
2018-07-08T03:12:56.665Z,7.43
2018-07-08T03:15:24.255Z,8.43
2018-07-08T03:17:51.815Z,7.50
2018-07-08T03:20:19.378Z,6.87
2018-07-08T03:22:47.795Z,7.37
2018-07-08T03:25:15.357Z,7.50
2018-07-08T03:27:42.914Z,6.83
2018-07-08T03:30:10.515Z,6.67
2018-07-08T03:32:38.849Z,6.90
2018-07-08T03:35:06.413Z,7.33
2018-07-08T03:37:34.011Z,7.50
2018-07-08T03:40:02.351Z,7.27
2018-07-08T03:42:29.924Z,7.90
2018-07-08T03:44:57.534Z,8.57
2018-07-08T03:47:25.096Z,8.10
2018-07-08T03:49:53.423Z,8.43
2018-07-08T03:52:21.018Z,8.27
2018-07-08T03:54:49.351Z,7.93
2018-07-08T03:57:16.916Z,8.07
2018-07-08T03:59:44.516Z,8.03
2018-07-08T04:02:12.088Z,7.93
2018-07-08T04:04:40.429Z,8.80
2018-07-08T04:07:08.045Z,9.00
2018-07-08T04:09:35.612Z,9.57
2018-07-08T04:12:03.182Z,9.13
2018-07-08T04:14:30.775Z,8.43
2018-07-08T04:16:58.342Z,8.93
2018-07-08T04:19:25.917Z,9.00
2018-07-08T04:21:53.529Z,10.13
2018-07-08T04:24:21.094Z,8.83
2018-07-08T04:26:48.656Z,8.67
2018-07-08T04:29:16.758Z,9.53
2018-07-08T04:31:44.329Z,9.53
2018-07-08T04:34:11.901Z,9.67
2018-07-08T04:36:39.510Z,12.20
2018-07-08T04:39:07.070Z,9.83
2018-07-08T04:41:34.633Z,9.93
2018-07-08T04:44:02.247Z,10.33
2018-07-08T04:46:29.813Z,10.47
2018-07-08T04:48:58.152Z,8.87
2018-07-08T04:51:25.774Z,9.17
2018-07-08T04:53:53.349Z,10.10
2018-07-08T04:56:20.910Z,9.83
2018-07-08T04:58:48.510Z,8.87
2018-07-08T05:01:16.078Z,9.47
2018-07-08T05:03:43.645Z,9.07
2018-07-08T05:06:11.253Z,8.57
2018-07-08T05:08:38.815Z,9.70
2018-07-08T05:11:06.391Z,10.53
2018-07-08T05:13:34.017Z,10.97
2018-07-08T05:16:02.350Z,10.20
2018-07-08T05:18:29.936Z,10.53
2018-07-08T05:20:57.545Z,10.40
2018-07-08T05:23:25.110Z,9.80
2018-07-08T05:25:52.693Z,10.40
2018-07-08T05:28:20.293Z,10.60
2018-07-08T05:30:47.867Z,9.80
2018-07-08T05:33:16.202Z,10.23
2018-07-08T05:35:43.864Z,10.60
2018-07-08T05:38:11.415Z,10.30
2018-07-08T05:40:38.990Z,10.70
2018-07-08T05:43:06.601Z,10.03
2018-07-08T05:45:34.168Z,9.90
2018-07-08T05:48:01.734Z,9.07
2018-07-08T05:50:29.358Z,10.23
2018-07-08T05:52:56.898Z,7.97
2018-07-08T05:55:24.474Z,7.93
2018-07-08T05:57:52.088Z,8.65
2018-07-08T06:00:19.659Z,7.43
2018-07-08T06:02:47.218Z,7.10
2018-07-08T06:05:14.812Z,6.50
2018-07-08T06:07:42.370Z,7.37
2018-07-08T06:10:09.939Z,7.13
2018-07-08T06:12:37.546Z,6.60
2018-07-08T06:15:05.111Z,7.05
2018-07-08T06:17:32.679Z,5.57
2018-07-08T06:20:00.306Z,5.83
2018-07-08T06:22:27.865Z,6.20
2018-07-08T06:24:56.196Z,6.17
2018-07-08T06:27:23.795Z,5.57
2018-07-08T06:29:51.359Z,5.30
2018-07-08T06:32:18.933Z,6.60
2018-07-08T06:34:47.303Z,5.60
2018-07-08T06:37:14.869Z,6.27
2018-07-08T06:39:42.441Z,5.10
2018-07-08T06:42:11.288Z,5.77
2018-07-08T06:44:38.854Z,5.43
2018-07-08T06:47:06.419Z,4.83
2018-07-08T06:49:34.482Z,4.97
2018-07-08T06:52:02.047Z,4.10
2018-07-08T06:54:29.605Z,5.28
2018-07-08T06:56:57.206Z,5.20
2018-07-08T06:59:25.561Z,4.85
2018-07-08T07:01:53.112Z,3.93
2018-07-08T07:04:21.275Z,4.47
2018-07-08T07:06:48.861Z,4.30
2018-07-08T07:09:16.403Z,4.53
2018-07-08T07:11:44.472Z,4.03
2018-07-08T07:14:12.037Z,4.30
2018-07-08T07:16:39.610Z,3.50
2018-07-08T07:19:07.199Z,4.30
2018-07-08T07:21:35.530Z,3.77
2018-07-08T07:24:03.095Z,4.00
2018-07-08T07:26:30.693Z,4.23
2018-07-08T07:28:58.265Z,3.93
2018-07-08T07:31:26.593Z,4.30
2018-07-08T07:33:54.571Z,3.40
2018-07-08T07:36:22.131Z,3.80
2018-07-08T07:38:49.692Z,3.70
2018-07-08T07:41:17.286Z,3.70
2018-07-08T07:43:45.609Z,3.30
2018-07-08T07:46:13.214Z,3.90
2018-07-08T07:48:40.813Z,3.20
2018-07-08T07:51:08.414Z,3.75
2018-07-08T07:53:35.971Z,2.80
2018-07-08T07:56:03.583Z,2.87
2018-07-08T07:58:31.916Z,2.53
2018-07-08T08:00:59.486Z,2.70
2018-07-08T08:03:27.105Z,2.70
2018-07-08T08:05:54.673Z,2.73
2018-07-08T08:08:22.275Z,2.53
2018-07-08T08:10:50.309Z,3.00
2018-07-08T08:13:23.797Z,2.80
2018-07-08T08:15:52.120Z,2.60
2018-07-08T08:18:19.730Z,2.47
2018-07-08T08:20:47.300Z,3.00
2018-07-08T08:23:14.862Z,2.50
2018-07-08T08:25:42.964Z,2.30
2018-07-08T08:28:10.531Z,2.70
2018-07-08T08:30:38.339Z,2.70
2018-07-08T08:33:06.751Z,2.27
2018-07-08T08:35:34.321Z,2.50
2018-07-08T08:38:01.887Z,2.50
2018-07-08T08:40:29.535Z,2.07
2018-07-08T08:42:57.098Z,2.50
2018-07-08T08:45:24.669Z,2.23
2018-07-08T08:47:52.307Z,2.00
2018-07-08T08:50:20.034Z,1.93
2018-07-08T08:52:47.600Z,2.13
2018-07-08T08:55:15.262Z,2.37
2018-07-08T08:57:42.834Z,2.17
2018-07-08T09:00:10.405Z,2.60
2018-07-08T09:02:39.751Z,2.07
2018-07-08T09:05:07.318Z,2.10
2018-07-08T09:07:34.880Z,1.90
2018-07-08T09:10:02.971Z,1.90
2018-07-08T09:12:30.531Z,2.23
2018-07-08T09:14:58.098Z,2.20
2018-07-08T09:17:26.056Z,2.50
2018-07-08T09:19:53.615Z,2.33
2018-07-08T09:22:21.190Z,2.20
2018-07-08T09:24:49.409Z,2.50
2018-07-08T09:27:16.908Z,2.30
2018-07-08T09:29:44.470Z,2.10
2018-07-08T09:32:13.126Z,2.73
2018-07-08T09:34:40.660Z,2.00
2018-07-08T09:37:08.982Z,2.00
2018-07-08T09:39:37.071Z,2.67
2018-07-08T09:42:04.639Z,2.67
2018-07-08T09:44:32.204Z,2.10
2018-07-08T09:46:59.851Z,1.80
2018-07-08T09:49:27.415Z,2.20
2018-07-08T09:51:56.506Z,2.40
2018-07-08T09:54:24.121Z,2.63
2018-07-08T09:56:52.455Z,2.80
2018-07-08T09:59:20.018Z,2.70
2018-07-08T10:01:48.319Z,2.80
2018-07-08T10:04:15.880Z,2.60
2018-07-08T10:06:43.436Z,2.13
2018-07-08T10:09:11.422Z,2.30
2018-07-08T10:11:39.746Z,2.30
2018-07-08T10:14:07.400Z,2.33
2018-07-08T10:16:34.957Z,2.47
2018-07-08T10:19:02.526Z,2.00
2018-07-08T10:21:30.179Z,2.10
2018-07-08T10:23:58.669Z,2.13
2018-07-08T10:26:26.232Z,2.20
2018-07-08T10:28:53.794Z,1.90
2018-07-08T10:31:22.196Z,1.97
2018-07-08T10:33:51.404Z,2.17
2018-07-08T10:36:17.324Z,2.13
2018-07-08T10:38:45.904Z,2.03
2018-07-08T10:41:13.462Z,2.20
2018-07-08T10:43:41.025Z,2.13
2018-07-08T10:46:08.637Z,2.00
2018-07-08T10:48:36.966Z,4.47
2018-07-08T10:51:04.526Z,2.30
2018-07-08T10:53:32.147Z,1.73
2018-07-08T10:55:59.705Z,1.80
2018-07-08T10:58:28.030Z,2.10
2018-07-08T11:00:55.671Z,2.00
2018-07-08T11:03:23.297Z,1.80
2018-07-08T11:05:51.626Z,1.80
2018-07-08T11:08:19.215Z,1.73
2018-07-08T11:10:47.014Z,1.70
2018-07-08T11:13:15.395Z,1.80
2018-07-08T11:15:43.781Z,2.00
2018-07-08T11:18:11.549Z,1.63
2018-07-08T11:20:39.151Z,1.70
2018-07-08T11:23:06.718Z,1.93
2018-07-08T11:25:34.279Z,1.80
2018-07-08T11:28:01.849Z,1.80
2018-07-08T11:30:29.438Z,1.90
2018-07-08T11:32:57.765Z,1.97
2018-07-08T11:35:25.327Z,1.80
2018-07-08T11:37:52.927Z,2.07
2018-07-08T11:40:20.508Z,1.87
2018-07-08T11:42:48.864Z,1.80
2018-07-08T11:45:16.819Z,2.10
2018-07-08T11:47:44.378Z,1.60
2018-07-08T11:50:11.943Z,1.77
2018-07-08T11:52:39.537Z,1.87
2018-07-08T11:55:07.873Z,1.87
2018-07-08T11:57:35.433Z,2.00
2018-07-08T12:00:03.441Z,1.63
2018-07-08T12:02:31.769Z,1.60
2018-07-08T12:04:59.368Z,1.70
2018-07-08T12:07:26.926Z,1.73
2018-07-08T12:09:54.493Z,1.30
2018-07-08T12:12:22.046Z,1.90
2018-07-08T12:14:49.649Z,2.23
2018-07-08T12:17:17.208Z,1.90
2018-07-08T12:19:44.979Z,1.60
2018-07-08T12:24:40.178Z,1.70
2018-07-08T12:27:07.784Z,1.73
2018-07-08T12:29:36.592Z,1.80
2018-07-08T12:32:04.157Z,2.00
2018-07-08T12:34:31.728Z,2.30
2018-07-08T12:36:59.328Z,1.90
2018-07-08T12:39:27.655Z,2.03
2018-07-08T12:41:55.220Z,1.90
2018-07-08T12:44:23.097Z,2.13
2018-07-08T12:46:51.044Z,2.12
2018-07-08T12:49:18.621Z,1.80
2018-07-08T12:51:46.582Z,2.00
2018-07-08T12:54:14.180Z,1.90
2018-07-08T12:56:41.708Z,1.93
2018-07-08T12:59:09.813Z,1.90
2018-07-08T13:01:38.264Z,1.87
2018-07-08T13:04:05.866Z,1.90
2018-07-08T13:06:34.291Z,2.15
2018-07-08T13:09:01.856Z,2.03
2018-07-08T13:11:29.428Z,2.30
2018-07-08T13:13:57.012Z,2.00
2018-07-08T13:16:24.604Z,2.13
2018-07-08T13:18:52.133Z,2.00
2018-07-08T13:21:19.748Z,2.17
2018-07-08T13:23:47.308Z,2.10
2018-07-08T13:26:14.888Z,1.77
2018-07-08T13:28:42.463Z,1.90
2018-07-08T13:31:10.027Z,1.80
2018-07-08T13:33:37.595Z,2.10
2018-07-08T13:36:05.204Z,2.07
2018-07-08T13:38:32.811Z,2.03
2018-07-08T13:41:00.376Z,2.10
2018-07-08T13:43:28.338Z,1.87
2018-07-08T13:45:55.895Z,1.90
2018-07-08T13:48:23.456Z,1.70
2018-07-08T13:50:51.989Z,2.00
2018-07-08T13:53:19.705Z,2.00
2018-07-08T13:55:47.435Z,1.70
2018-07-08T13:58:15.193Z,1.87
2018-07-08T14:00:42.810Z,1.30
2018-07-08T14:03:10.362Z,1.60
2018-07-08T14:05:38.000Z,1.80
2018-07-08T14:08:05.572Z,1.57
2018-07-08T14:10:33.112Z,1.70
2018-07-08T14:13:00.767Z,1.60
2018-07-08T14:15:28.331Z,1.80
2018-07-08T14:17:55.890Z,1.40
2018-07-08T14:20:23.516Z,1.47
2018-07-08T14:22:51.040Z,1.60
2018-07-08T14:25:18.606Z,1.57
2018-07-08T14:27:46.199Z,1.70
2018-07-08T14:30:13.763Z,1.57
2018-07-08T14:32:41.325Z,1.50
2018-07-08T14:35:09.702Z,1.37
2018-07-08T14:37:37.266Z,1.53
2018-07-08T14:40:05.590Z,1.47
2018-07-08T14:42:33.186Z,1.70
2018-07-08T14:45:00.791Z,1.87
2018-07-08T14:47:28.374Z,1.50
2018-07-08T14:49:56.260Z,1.60
2018-07-08T14:52:23.821Z,1.27
2018-07-08T14:54:51.382Z,1.40
2018-07-08T14:57:19.023Z,1.40
2018-07-08T14:59:46.572Z,1.27
2018-07-08T15:02:14.193Z,1.40
2018-07-08T15:04:41.814Z,1.57
2018-07-08T15:07:09.395Z,1.27
2018-07-08T15:09:36.920Z,1.23
2018-07-08T15:12:04.562Z,1.60
2018-07-08T15:14:32.113Z,1.20
2018-07-08T15:17:00.439Z,1.20
2018-07-08T15:19:28.058Z,1.30
2018-07-08T15:21:56.377Z,1.40
2018-07-08T15:24:23.932Z,1.20
2018-07-08T15:26:51.540Z,1.53
2018-07-08T15:29:19.094Z,1.20
2018-07-08T15:31:46.657Z,1.35
2018-07-08T15:34:14.285Z,1.43
2018-07-08T15:36:41.839Z,1.50
2018-07-08T15:39:09.401Z,1.40
2018-07-08T15:41:37.054Z,1.20
2018-07-08T15:44:04.567Z,1.50
2018-07-08T15:46:32.127Z,1.30
2018-07-08T15:49:00.635Z,1.58
2018-07-08T15:51:28.962Z,1.50
2018-07-08T15:53:56.517Z,1.10
2018-07-08T15:56:24.135Z,1.50
2018-07-08T15:58:52.455Z,1.43
2018-07-08T16:01:20.018Z,1.40
2018-07-08T16:03:47.622Z,1.40
2018-07-08T16:06:15.174Z,1.40
2018-07-08T16:08:42.731Z,1.53
2018-07-08T16:11:10.341Z,1.65
2018-07-08T16:13:37.896Z,1.30
2018-07-08T16:16:05.457Z,1.50
2018-07-08T16:18:33.206Z,1.43
2018-07-08T16:21:00.634Z,1.90
2018-07-08T16:23:28.195Z,1.40
2018-07-08T16:25:55.833Z,1.30
2018-07-08T16:28:23.372Z,1.55
2018-07-08T16:30:50.928Z,1.80
2018-07-08T16:33:18.564Z,1.77
2018-07-08T16:35:46.121Z,1.43
2018-07-08T16:38:13.681Z,1.50
2018-07-08T16:40:41.326Z,1.33
2018-07-08T16:43:08.895Z,1.40
2018-07-08T16:45:36.490Z,1.90
2018-07-08T16:48:04.110Z,1.60
2018-07-08T16:50:31.677Z,1.70
2018-07-08T16:52:59.231Z,1.60
2018-07-08T16:55:26.866Z,1.80
2018-07-08T16:57:54.431Z,2.00
2018-07-08T17:00:22.020Z,2.00
2018-07-08T17:02:50.392Z,1.87
2018-07-08T17:05:17.949Z,1.33
2018-07-08T17:07:45.519Z,1.77
2018-07-08T17:10:13.122Z,2.17
2018-07-08T17:12:41.450Z,2.00
2018-07-08T17:15:09.014Z,1.50
2018-07-08T17:17:36.604Z,1.57
2018-07-08T17:20:04.163Z,1.70
2018-07-08T17:22:31.718Z,1.77
2018-07-08T17:25:00.911Z,1.70
2018-07-08T17:27:28.483Z,1.90
2018-07-08T17:29:56.037Z,2.00
2018-07-08T17:32:23.628Z,1.80
2018-07-08T17:34:51.971Z,1.80
2018-07-08T17:37:19.532Z,1.70
2018-07-08T17:39:47.126Z,1.80
2018-07-08T17:42:15.463Z,1.80
2018-07-08T17:44:43.016Z,1.80
2018-07-08T17:47:11.090Z,1.70
2018-07-08T17:49:38.647Z,1.50
2018-07-08T17:52:06.202Z,2.10
2018-07-08T17:54:33.814Z,1.70
2018-07-08T17:57:01.373Z,1.70
2018-07-08T17:59:29.694Z,1.87
2018-07-08T18:01:57.338Z,1.60
2018-07-08T18:04:24.903Z,1.40
2018-07-08T18:06:52.466Z,1.87
2018-07-08T18:09:20.066Z,1.73
2018-07-08T18:11:47.626Z,1.70
2018-07-08T18:14:15.189Z,1.80
2018-07-08T18:16:43.154Z,1.53
2018-07-08T18:19:10.715Z,1.63
2018-07-08T18:21:38.275Z,1.60
2018-07-08T18:24:05.927Z,1.60
2018-07-08T18:26:33.487Z,1.50
2018-07-08T18:29:01.046Z,1.63
2018-07-08T18:31:28.714Z,1.70
2018-07-08T18:33:56.258Z,1.43
2018-07-08T18:36:23.822Z,1.40
2018-07-08T18:38:51.430Z,1.37
2018-07-08T18:41:18.987Z,1.55
2018-07-08T18:43:46.548Z,1.60
2018-07-08T18:46:15.066Z,1.55
2018-07-08T18:48:42.570Z,1.50
2018-07-08T18:51:10.124Z,1.60
2018-07-08T18:53:38.100Z,1.70
2018-07-08T18:56:05.666Z,1.70
2018-07-08T18:58:33.221Z,1.40
2018-07-08T19:01:01.815Z,2.00
2018-07-08T19:03:29.385Z,1.90
2018-07-08T19:05:56.942Z,1.77
2018-07-08T19:08:24.908Z,1.67
2018-07-08T19:10:52.465Z,1.73
2018-07-08T19:13:20.033Z,1.40
2018-07-08T19:15:48.431Z,1.80
2018-07-08T19:18:15.994Z,1.60
2018-07-08T19:20:43.926Z,1.90
2018-07-08T19:23:12.430Z,1.53
2018-07-08T19:25:39.987Z,1.90
2018-07-08T19:28:07.548Z,2.20
2018-07-08T19:30:35.177Z,1.93
2018-07-08T19:33:02.737Z,1.90
2018-07-08T19:35:30.307Z,1.83
2018-07-08T19:37:57.927Z,1.80
2018-07-08T19:40:26.289Z,1.43
2018-07-08T19:42:53.841Z,1.50
2018-07-08T19:45:21.999Z,1.93
2018-07-08T19:47:49.554Z,2.10
2018-07-08T19:50:17.110Z,1.80
2018-07-08T19:52:45.097Z,1.67
2018-07-08T19:55:12.651Z,1.80
2018-07-08T19:57:40.208Z,1.92
2018-07-08T20:00:07.857Z,1.60
2018-07-08T20:02:35.427Z,1.80
2018-07-08T20:05:02.997Z,1.67
2018-07-08T20:07:30.629Z,1.53
2018-07-08T20:09:58.175Z,1.57
2018-07-08T20:12:25.740Z,1.37
2018-07-08T20:14:53.377Z,1.73
2018-07-08T20:17:20.930Z,1.80
2018-07-08T20:19:48.490Z,2.23
2018-07-08T20:22:17.045Z,1.80
2018-07-08T20:24:44.607Z,1.90
2018-07-08T20:27:12.162Z,2.10
2018-07-08T20:29:40.868Z,1.83
2018-07-08T20:32:08.426Z,1.87
2018-07-08T20:34:35.984Z,2.50
2018-07-08T20:37:04.284Z,2.13
2018-07-08T20:39:31.843Z,2.30
2018-07-08T20:41:59.401Z,2.20
2018-07-08T20:44:27.006Z,1.80
2018-07-08T20:46:54.600Z,2.00
2018-07-08T20:49:22.161Z,2.17
2018-07-08T20:51:49.810Z,1.90
2018-07-08T20:54:17.372Z,1.90
2018-07-08T20:56:44.924Z,2.00
2018-07-08T20:59:12.540Z,2.00
2018-07-08T21:01:40.110Z,1.67
2018-07-08T21:04:07.671Z,2.03
2018-07-08T21:06:35.293Z,2.53
2018-07-08T21:09:02.852Z,2.53
2018-07-08T21:11:30.426Z,3.33
2018-07-08T21:13:58.013Z,3.40
2018-07-08T21:16:25.569Z,2.20
2018-07-08T21:18:53.196Z,2.53
2018-07-08T21:21:20.717Z,2.20
2018-07-08T21:23:48.286Z,2.20
2018-07-08T21:26:15.846Z,2.37
2018-07-08T21:28:43.458Z,2.90
2018-07-08T21:31:11.035Z,2.23
2018-07-08T21:33:38.577Z,2.40
2018-07-08T21:36:07.055Z,2.40
2018-07-08T21:38:34.613Z,2.67
2018-07-08T21:41:02.170Z,2.30
2018-07-08T21:43:30.143Z,2.60
2018-07-08T21:45:57.712Z,2.27
2018-07-08T21:48:25.277Z,2.30
2018-07-08T21:50:52.869Z,2.60
2018-07-08T21:53:21.190Z,2.45
2018-07-08T21:55:48.746Z,2.20
2018-07-08T21:58:16.344Z,2.40
2018-07-08T22:00:43.906Z,3.03
2018-07-08T22:03:11.462Z,2.30
2018-07-08T22:05:39.523Z,2.60
2018-07-08T22:08:07.090Z,2.20
2018-07-08T22:10:34.651Z,2.03
2018-07-08T22:13:02.242Z,2.00
2018-07-08T22:15:29.853Z,2.47
2018-07-08T22:17:57.375Z,2.30
2018-07-08T22:20:24.973Z,2.20
2018-07-08T22:22:52.530Z,2.87
2018-07-08T22:25:20.091Z,2.63
2018-07-08T22:27:47.709Z,2.17
2018-07-08T22:30:15.272Z,2.60
2018-07-08T22:32:42.827Z,2.37
2018-07-08T22:35:10.427Z,2.33
2018-07-08T22:37:37.991Z,2.40
2018-07-08T22:40:05.552Z,2.20
2018-07-08T22:42:33.420Z,2.30
2018-07-08T22:45:00.989Z,3.13
2018-07-08T22:47:28.542Z,2.40
2018-07-08T22:49:56.156Z,2.80
2018-07-08T22:52:23.715Z,2.30
2018-07-08T22:54:51.276Z,2.70
2018-07-08T22:57:18.869Z,2.80
2018-07-08T22:59:46.467Z,3.12
2018-07-08T23:02:38.720Z,2.97
2018-07-08T23:05:06.280Z,3.10
2018-07-08T23:07:33.838Z,3.12
2018-07-08T23:10:01.442Z,2.80
2018-07-08T23:12:29.006Z,2.90
2018-07-08T23:14:57.338Z,2.53
2018-07-08T23:17:24.929Z,2.70
2018-07-08T23:19:52.485Z,2.70
2018-07-08T23:22:20.047Z,2.37
2018-07-08T23:24:47.639Z,2.57
2018-07-08T23:27:15.201Z,2.40
2018-07-08T23:29:42.772Z,2.80
2018-07-08T23:32:10.373Z,2.97
2018-07-08T23:34:37.949Z,2.47
2018-07-08T23:37:05.495Z,3.37
2018-07-08T23:39:33.095Z,3.43
2018-07-08T23:42:01.429Z,3.90
2018-07-08T23:44:28.991Z,3.13
2018-07-08T23:46:56.585Z,3.67
2018-07-08T23:49:24.142Z,2.83
2018-07-08T23:51:51.699Z,3.47
2018-07-08T23:54:19.323Z,3.27
2018-07-08T23:56:46.888Z,3.63
2018-07-08T23:59:14.444Z,3.20
